sensor_id;sensor_type;location;lat;lon;timestamp;P1;durP1;ratioP1;P2;durP2;ratioP2
12441;SDS011;6285;48.804;9.220;2023-03-14T00:01:20;1.08;;;0.57;;
12441;SDS011;6285;48.804;9.220;2023-03-14T00:03:48;1.00;;;0.70;;
12441;SDS011;6285;48.804;9.220;2023-03-14T00:06:15;0.60;;;0.50;;
12441;SDS011;6285;48.804;9.220;2023-03-14T00:08:42;0.73;;;0.40;;
12441;SDS011;6285;48.804;9.220;2023-03-14T00:11:10;1.10;;;0.60;;
12441;SDS011;6285;48.804;9.220;2023-03-14T00:13:39;0.85;;;0.50;;
12441;SDS011;6285;48.804;9.220;2023-03-14T00:16:07;0.57;;;0.40;;
12441;SDS011;6285;48.804;9.220;2023-03-14T00:18:34;0.47;;;0.40;;
12441;SDS011;6285;48.804;9.220;2023-03-14T00:21:02;2.63;;;0.70;;
12441;SDS011;6285;48.804;9.220;2023-03-14T00:23:30;0.70;;;0.60;;
12441;SDS011;6285;48.804;9.220;2023-03-14T00:25:58;1.52;;;0.50;;
12441;SDS011;6285;48.804;9.220;2023-03-14T00:28:25;0.80;;;0.50;;
12441;SDS011;6285;48.804;9.220;2023-03-14T00:30:54;1.38;;;0.60;;
12441;SDS011;6285;48.804;9.220;2023-03-14T00:33:21;1.00;;;0.75;;
12441;SDS011;6285;48.804;9.220;2023-03-14T00:35:52;0.85;;;0.60;;
12441;SDS011;6285;48.804;9.220;2023-03-14T00:38:19;2.33;;;0.82;;
12441;SDS011;6285;48.804;9.220;2023-03-14T00:40:46;0.65;;;0.50;;
12441;SDS011;6285;48.804;9.220;2023-03-14T00:43:14;1.05;;;0.60;;
12441;SDS011;6285;48.804;9.220;2023-03-14T00:45:41;1.40;;;0.57;;
12441;SDS011;6285;48.804;9.220;2023-03-14T00:48:09;1.65;;;0.70;;
12441;SDS011;6285;48.804;9.220;2023-03-14T00:50:37;1.75;;;0.70;;
12441;SDS011;6285;48.804;9.220;2023-03-14T00:53:04;0.50;;;0.50;;
12441;SDS011;6285;48.804;9.220;2023-03-14T00:55:31;0.60;;;0.60;;
12441;SDS011;6285;48.804;9.220;2023-03-14T00:57:58;1.85;;;0.70;;
12441;SDS011;6285;48.804;9.220;2023-03-14T01:00:25;0.98;;;0.70;;
12441;SDS011;6285;48.804;9.220;2023-03-14T01:02:52;1.50;;;0.43;;
12441;SDS011;6285;48.804;9.220;2023-03-14T01:05:20;1.13;;;0.60;;
12441;SDS011;6285;48.804;9.220;2023-03-14T01:07:48;1.20;;;0.73;;
12441;SDS011;6285;48.804;9.220;2023-03-14T01:10:15;0.93;;;0.70;;
12441;SDS011;6285;48.804;9.220;2023-03-14T01:12:42;0.50;;;0.50;;
12441;SDS011;6285;48.804;9.220;2023-03-14T01:15:09;0.40;;;0.40;;
12441;SDS011;6285;48.804;9.220;2023-03-14T01:17:37;0.68;;;0.55;;
12441;SDS011;6285;48.804;9.220;2023-03-14T01:20:04;1.17;;;0.70;;
12441;SDS011;6285;48.804;9.220;2023-03-14T01:22:35;1.48;;;0.50;;
12441;SDS011;6285;48.804;9.220;2023-03-14T01:25:03;1.00;;;0.52;;
12441;SDS011;6285;48.804;9.220;2023-03-14T01:27:31;0.50;;;0.50;;
12441;SDS011;6285;48.804;9.220;2023-03-14T01:29:59;0.85;;;0.60;;
12441;SDS011;6285;48.804;9.220;2023-03-14T01:32:27;0.85;;;0.43;;
12441;SDS011;6285;48.804;9.220;2023-03-14T01:34:54;0.50;;;0.50;;
12441;SDS011;6285;48.804;9.220;2023-03-14T01:37:21;2.58;;;0.65;;
12441;SDS011;6285;48.804;9.220;2023-03-14T01:39:50;2.03;;;0.40;;
12441;SDS011;6285;48.804;9.220;2023-03-14T01:42:17;0.50;;;0.50;;
12441;SDS011;6285;48.804;9.220;2023-03-14T01:44:46;0.65;;;0.45;;
12441;SDS011;6285;48.804;9.220;2023-03-14T01:47:13;0.60;;;0.45;;
12441;SDS011;6285;48.804;9.220;2023-03-14T01:49:40;0.45;;;0.45;;
12441;SDS011;6285;48.804;9.220;2023-03-14T01:52:09;0.68;;;0.60;;
12441;SDS011;6285;48.804;9.220;2023-03-14T01:54:37;1.02;;;0.85;;
12441;SDS011;6285;48.804;9.220;2023-03-14T01:57:08;0.57;;;0.38;;
12441;SDS011;6285;48.804;9.220;2023-03-14T01:59:37;0.98;;;0.50;;
12441;SDS011;6285;48.804;9.220;2023-03-14T02:02:04;0.63;;;0.50;;
12441;SDS011;6285;48.804;9.220;2023-03-14T02:04:33;2.00;;;0.60;;
12441;SDS011;6285;48.804;9.220;2023-03-14T02:07:03;1.23;;;0.50;;
12441;SDS011;6285;48.804;9.220;2023-03-14T02:09:33;1.65;;;0.50;;
12441;SDS011;6285;48.804;9.220;2023-03-14T02:12:01;0.85;;;0.50;;
12441;SDS011;6285;48.804;9.220;2023-03-14T02:14:31;1.40;;;0.50;;
12441;SDS011;6285;48.804;9.220;2023-03-14T02:17:00;0.60;;;0.40;;
12441;SDS011;6285;48.804;9.220;2023-03-14T02:19:34;0.98;;;0.43;;
12441;SDS011;6285;48.804;9.220;2023-03-14T02:22:05;0.90;;;0.57;;
12441;SDS011;6285;48.804;9.220;2023-03-14T02:24:35;0.68;;;0.50;;
12441;SDS011;6285;48.804;9.220;2023-03-14T02:27:15;0.80;;;0.40;;
12441;SDS011;6285;48.804;9.220;2023-03-14T02:29:47;0.50;;;0.47;;
12441;SDS011;6285;48.804;9.220;2023-03-14T02:32:15;1.48;;;0.50;;
12441;SDS011;6285;48.804;9.220;2023-03-14T02:34:43;0.50;;;0.40;;
12441;SDS011;6285;48.804;9.220;2023-03-14T02:37:12;2.53;;;0.43;;
12441;SDS011;6285;48.804;9.220;2023-03-14T02:39:41;0.40;;;0.40;;
12441;SDS011;6285;48.804;9.220;2023-03-14T02:42:10;1.20;;;0.50;;
12441;SDS011;6285;48.804;9.220;2023-03-14T02:44:48;1.23;;;0.55;;
12441;SDS011;6285;48.804;9.220;2023-03-14T02:47:16;0.77;;;0.40;;
12441;SDS011;6285;48.804;9.220;2023-03-14T02:49:43;0.40;;;0.40;;
12441;SDS011;6285;48.804;9.220;2023-03-14T02:52:10;0.65;;;0.40;;
12441;SDS011;6285;48.804;9.220;2023-03-14T02:54:37;0.40;;;0.30;;
12441;SDS011;6285;48.804;9.220;2023-03-14T02:57:04;0.50;;;0.40;;
12441;SDS011;6285;48.804;9.220;2023-03-14T02:59:31;0.40;;;0.40;;
12441;SDS011;6285;48.804;9.220;2023-03-14T03:02:00;0.40;;;0.40;;
12441;SDS011;6285;48.804;9.220;2023-03-14T03:04:27;0.63;;;0.30;;
12441;SDS011;6285;48.804;9.220;2023-03-14T03:06:54;0.60;;;0.40;;
12441;SDS011;6285;48.804;9.220;2023-03-14T03:09:22;0.82;;;0.50;;
12441;SDS011;6285;48.804;9.220;2023-03-14T03:11:50;0.93;;;0.30;;
12441;SDS011;6285;48.804;9.220;2023-03-14T03:14:17;1.30;;;0.38;;
12441;SDS011;6285;48.804;9.220;2023-03-14T03:16:44;1.02;;;0.50;;
12441;SDS011;6285;48.804;9.220;2023-03-14T03:19:12;1.20;;;0.50;;
12441;SDS011;6285;48.804;9.220;2023-03-14T03:21:40;0.90;;;0.55;;
12441;SDS011;6285;48.804;9.220;2023-03-14T03:24:08;1.42;;;0.60;;
12441;SDS011;6285;48.804;9.220;2023-03-14T03:26:35;0.68;;;0.50;;
12441;SDS011;6285;48.804;9.220;2023-03-14T03:29:02;1.98;;;0.60;;
12441;SDS011;6285;48.804;9.220;2023-03-14T03:31:29;1.05;;;0.60;;
12441;SDS011;6285;48.804;9.220;2023-03-14T03:33:56;0.63;;;0.47;;
12441;SDS011;6285;48.804;9.220;2023-03-14T03:36:25;1.60;;;0.60;;
12441;SDS011;6285;48.804;9.220;2023-03-14T03:38:52;1.58;;;0.50;;
12441;SDS011;6285;48.804;9.220;2023-03-14T03:41:19;0.85;;;0.57;;
12441;SDS011;6285;48.804;9.220;2023-03-14T03:43:46;1.20;;;0.80;;
12441;SDS011;6285;48.804;9.220;2023-03-14T03:46:13;1.23;;;0.60;;
12441;SDS011;6285;48.804;9.220;2023-03-14T03:48:40;1.42;;;0.50;;
12441;SDS011;6285;48.804;9.220;2023-03-14T03:51:10;1.15;;;0.57;;
12441;SDS011;6285;48.804;9.220;2023-03-14T03:53:39;1.65;;;0.60;;
12441;SDS011;6285;48.804;9.220;2023-03-14T03:56:06;2.17;;;0.70;;
12441;SDS011;6285;48.804;9.220;2023-03-14T03:58:33;1.27;;;0.60;;
12441;SDS011;6285;48.804;9.220;2023-03-14T04:01:02;1.42;;;0.70;;
12441;SDS011;6285;48.804;9.220;2023-03-14T04:03:29;2.45;;;0.80;;
12441;SDS011;6285;48.804;9.220;2023-03-14T04:05:59;2.90;;;0.82;;
12441;SDS011;6285;48.804;9.220;2023-03-14T04:08:27;1.25;;;0.60;;
12441;SDS011;6285;48.804;9.220;2023-03-14T04:10:57;2.85;;;0.70;;
12441;SDS011;6285;48.804;9.220;2023-03-14T04:13:24;2.30;;;0.70;;
12441;SDS011;6285;48.804;9.220;2023-03-14T04:15:51;3.88;;;1.02;;
12441;SDS011;6285;48.804;9.220;2023-03-14T04:18:19;1.90;;;0.70;;
12441;SDS011;6285;48.804;9.220;2023-03-14T04:20:50;1.48;;;0.70;;
12441;SDS011;6285;48.804;9.220;2023-03-14T04:23:17;2.65;;;0.93;;
12441;SDS011;6285;48.804;9.220;2023-03-14T04:25:44;2.67;;;0.90;;
12441;SDS011;6285;48.804;9.220;2023-03-14T04:28:13;3.30;;;0.82;;
12441;SDS011;6285;48.804;9.220;2023-03-14T04:30:40;1.60;;;0.80;;
12441;SDS011;6285;48.804;9.220;2023-03-14T04:33:07;3.33;;;1.00;;
12441;SDS011;6285;48.804;9.220;2023-03-14T04:35:34;3.00;;;0.90;;
12441;SDS011;6285;48.804;9.220;2023-03-14T04:38:01;2.05;;;0.88;;
12441;SDS011;6285;48.804;9.220;2023-03-14T04:40:29;3.40;;;0.80;;
12441;SDS011;6285;48.804;9.220;2023-03-14T04:42:56;2.35;;;0.77;;
12441;SDS011;6285;48.804;9.220;2023-03-14T04:45:24;3.08;;;1.00;;
12441;SDS011;6285;48.804;9.220;2023-03-14T04:47:51;2.47;;;0.82;;
12441;SDS011;6285;48.804;9.220;2023-03-14T04:50:18;4.15;;;1.00;;
12441;SDS011;6285;48.804;9.220;2023-03-14T04:52:45;2.25;;;0.80;;
12441;SDS011;6285;48.804;9.220;2023-03-14T04:55:12;3.60;;;0.88;;
12441;SDS011;6285;48.804;9.220;2023-03-14T04:57:40;4.50;;;1.13;;
12441;SDS011;6285;48.804;9.220;2023-03-14T05:00:07;2.72;;;1.33;;
12441;SDS011;6285;48.804;9.220;2023-03-14T05:02:36;4.05;;;1.10;;
12441;SDS011;6285;48.804;9.220;2023-03-14T05:05:03;3.08;;;1.08;;
12441;SDS011;6285;48.804;9.220;2023-03-14T05:07:31;2.88;;;0.98;;
12441;SDS011;6285;48.804;9.220;2023-03-14T05:09:58;3.80;;;1.10;;
12441;SDS011;6285;48.804;9.220;2023-03-14T05:12:25;4.85;;;1.00;;
12441;SDS011;6285;48.804;9.220;2023-03-14T05:14:52;3.85;;;1.08;;
12441;SDS011;6285;48.804;9.220;2023-03-14T05:17:19;2.42;;;0.80;;
12441;SDS011;6285;48.804;9.220;2023-03-14T05:19:48;4.28;;;1.10;;
12441;SDS011;6285;48.804;9.220;2023-03-14T05:22:15;5.43;;;1.63;;
12441;SDS011;6285;48.804;9.220;2023-03-14T05:24:42;2.28;;;1.00;;
12441;SDS011;6285;48.804;9.220;2023-03-14T05:27:09;2.47;;;1.17;;
12441;SDS011;6285;48.804;9.220;2023-03-14T05:29:36;3.85;;;1.10;;
12441;SDS011;6285;48.804;9.220;2023-03-14T05:32:03;6.45;;;1.23;;
12441;SDS011;6285;48.804;9.220;2023-03-14T05:34:30;3.53;;;1.17;;
12441;SDS011;6285;48.804;9.220;2023-03-14T05:36:59;2.00;;;1.00;;
12441;SDS011;6285;48.804;9.220;2023-03-14T05:39:26;2.88;;;1.20;;
12441;SDS011;6285;48.804;9.220;2023-03-14T05:41:53;3.05;;;1.30;;
12441;SDS011;6285;48.804;9.220;2023-03-14T05:44:21;3.88;;;1.25;;
12441;SDS011;6285;48.804;9.220;2023-03-14T05:46:48;3.65;;;1.17;;
12441;SDS011;6285;48.804;9.220;2023-03-14T05:49:15;5.75;;;1.35;;
12441;SDS011;6285;48.804;9.220;2023-03-14T05:51:42;4.20;;;1.38;;
12441;SDS011;6285;48.804;9.220;2023-03-14T05:54:10;3.47;;;1.27;;
12441;SDS011;6285;48.804;9.220;2023-03-14T05:56:37;4.35;;;1.30;;
12441;SDS011;6285;48.804;9.220;2023-03-14T05:59:05;3.97;;;1.50;;
12441;SDS011;6285;48.804;9.220;2023-03-14T06:01:33;3.30;;;1.30;;
12441;SDS011;6285;48.804;9.220;2023-03-14T06:04:01;3.00;;;1.40;;
12441;SDS011;6285;48.804;9.220;2023-03-14T06:06:28;3.63;;;1.20;;
12441;SDS011;6285;48.804;9.220;2023-03-14T06:08:55;2.42;;;1.10;;
12441;SDS011;6285;48.804;9.220;2023-03-14T06:11:23;2.35;;;1.23;;
12441;SDS011;6285;48.804;9.220;2023-03-14T06:13:51;2.30;;;0.88;;
12441;SDS011;6285;48.804;9.220;2023-03-14T06:16:18;3.03;;;1.20;;
12441;SDS011;6285;48.804;9.220;2023-03-14T06:18:45;3.78;;;1.20;;
12441;SDS011;6285;48.804;9.220;2023-03-14T06:21:14;3.67;;;0.88;;
12441;SDS011;6285;48.804;9.220;2023-03-14T06:23:41;4.18;;;1.33;;
12441;SDS011;6285;48.804;9.220;2023-03-14T06:26:08;4.97;;;1.08;;
12441;SDS011;6285;48.804;9.220;2023-03-14T06:28:38;2.30;;;0.90;;
12441;SDS011;6285;48.804;9.220;2023-03-14T06:31:05;2.05;;;1.13;;
12441;SDS011;6285;48.804;9.220;2023-03-14T06:33:32;3.20;;;1.30;;
12441;SDS011;6285;48.804;9.220;2023-03-14T06:35:59;2.88;;;0.90;;
12441;SDS011;6285;48.804;9.220;2023-03-14T06:38:27;3.10;;;1.15;;
12441;SDS011;6285;48.804;9.220;2023-03-14T06:40:54;5.28;;;1.20;;
12441;SDS011;6285;48.804;9.220;2023-03-14T06:43:21;2.47;;;1.00;;
12441;SDS011;6285;48.804;9.220;2023-03-14T06:45:49;2.75;;;0.95;;
12441;SDS011;6285;48.804;9.220;2023-03-14T06:48:16;4.05;;;1.13;;
12441;SDS011;6285;48.804;9.220;2023-03-14T06:50:44;3.03;;;1.10;;
12441;SDS011;6285;48.804;9.220;2023-03-14T06:53:11;5.22;;;1.00;;
12441;SDS011;6285;48.804;9.220;2023-03-14T06:55:38;6.65;;;1.10;;
12441;SDS011;6285;48.804;9.220;2023-03-14T06:58:06;2.90;;;1.02;;
12441;SDS011;6285;48.804;9.220;2023-03-14T07:00:33;2.58;;;0.93;;
12441;SDS011;6285;48.804;9.220;2023-03-14T07:03:01;2.45;;;0.93;;
12441;SDS011;6285;48.804;9.220;2023-03-14T07:05:28;2.63;;;0.93;;
12441;SDS011;6285;48.804;9.220;2023-03-14T07:07:55;4.55;;;1.02;;
12441;SDS011;6285;48.804;9.220;2023-03-14T07:10:22;5.60;;;0.95;;
12441;SDS011;6285;48.804;9.220;2023-03-14T07:12:49;3.22;;;0.93;;
12441;SDS011;6285;48.804;9.220;2023-03-14T07:15:17;3.60;;;0.70;;
12441;SDS011;6285;48.804;9.220;2023-03-14T07:17:44;1.10;;;0.50;;
12441;SDS011;6285;48.804;9.220;2023-03-14T07:20:14;3.03;;;0.80;;
12441;SDS011;6285;48.804;9.220;2023-03-14T07:22:41;2.08;;;0.70;;
12441;SDS011;6285;48.804;9.220;2023-03-14T07:25:08;3.17;;;0.77;;
12441;SDS011;6285;48.804;9.220;2023-03-14T07:27:37;1.35;;;0.70;;
12441;SDS011;6285;48.804;9.220;2023-03-14T07:30:04;3.42;;;0.73;;
12441;SDS011;6285;48.804;9.220;2023-03-14T07:32:31;2.20;;;0.70;;
12441;SDS011;6285;48.804;9.220;2023-03-14T07:34:58;2.65;;;0.70;;
12441;SDS011;6285;48.804;9.220;2023-03-14T07:37:26;1.77;;;0.60;;
12441;SDS011;6285;48.804;9.220;2023-03-14T07:39:53;1.88;;;0.77;;
12441;SDS011;6285;48.804;9.220;2023-03-14T07:42:20;1.85;;;0.77;;
12441;SDS011;6285;48.804;9.220;2023-03-14T07:44:47;2.63;;;0.70;;
12441;SDS011;6285;48.804;9.220;2023-03-14T07:47:14;1.45;;;0.70;;
12441;SDS011;6285;48.804;9.220;2023-03-14T07:49:41;4.07;;;0.80;;
12441;SDS011;6285;48.804;9.220;2023-03-14T07:52:08;1.50;;;0.88;;
12441;SDS011;6285;48.804;9.220;2023-03-14T07:54:36;1.42;;;0.70;;
12441;SDS011;6285;48.804;9.220;2023-03-14T07:57:03;1.83;;;0.60;;
12441;SDS011;6285;48.804;9.220;2023-03-14T07:59:30;2.40;;;0.60;;
12441;SDS011;6285;48.804;9.220;2023-03-14T08:01:57;1.15;;;0.40;;
12441;SDS011;6285;48.804;9.220;2023-03-14T08:04:24;4.07;;;0.68;;
12441;SDS011;6285;48.804;9.220;2023-03-14T08:06:52;3.45;;;0.70;;
12441;SDS011;6285;48.804;9.220;2023-03-14T08:09:19;1.58;;;0.57;;
12441;SDS011;6285;48.804;9.220;2023-03-14T08:11:47;1.33;;;0.60;;
12441;SDS011;6285;48.804;9.220;2023-03-14T08:14:14;2.03;;;0.47;;
12441;SDS011;6285;48.804;9.220;2023-03-14T08:16:41;0.95;;;0.65;;
12441;SDS011;6285;48.804;9.220;2023-03-14T08:19:08;1.40;;;0.65;;
12441;SDS011;6285;48.804;9.220;2023-03-14T08:21:35;1.48;;;0.50;;
12441;SDS011;6285;48.804;9.220;2023-03-14T08:24:02;2.10;;;0.70;;
12441;SDS011;6285;48.804;9.220;2023-03-14T08:26:29;1.00;;;0.52;;
12441;SDS011;6285;48.804;9.220;2023-03-14T08:28:57;1.33;;;0.60;;
12441;SDS011;6285;48.804;9.220;2023-03-14T08:31:24;2.10;;;0.70;;
12441;SDS011;6285;48.804;9.220;2023-03-14T08:33:51;2.25;;;0.60;;
12441;SDS011;6285;48.804;9.220;2023-03-14T08:36:19;1.20;;;0.50;;
12441;SDS011;6285;48.804;9.220;2023-03-14T08:38:47;1.50;;;0.60;;
12441;SDS011;6285;48.804;9.220;2023-03-14T08:41:14;2.97;;;0.60;;
12441;SDS011;6285;48.804;9.220;2023-03-14T08:43:41;1.38;;;0.52;;
12441;SDS011;6285;48.804;9.220;2023-03-14T08:46:09;1.17;;;0.60;;
12441;SDS011;6285;48.804;9.220;2023-03-14T08:48:36;3.95;;;0.95;;
12441;SDS011;6285;48.804;9.220;2023-03-14T08:51:06;0.80;;;0.40;;
12441;SDS011;6285;48.804;9.220;2023-03-14T08:53:33;3.13;;;0.65;;
12441;SDS011;6285;48.804;9.220;2023-03-14T08:56:00;1.10;;;0.60;;
12441;SDS011;6285;48.804;9.220;2023-03-14T08:58:27;2.08;;;0.50;;
12441;SDS011;6285;48.804;9.220;2023-03-14T09:00:54;1.15;;;0.40;;
12441;SDS011;6285;48.804;9.220;2023-03-14T09:03:22;1.08;;;0.80;;
12441;SDS011;6285;48.804;9.220;2023-03-14T09:05:49;1.48;;;0.60;;
12441;SDS011;6285;48.804;9.220;2023-03-14T09:08:17;3.75;;;1.38;;
12441;SDS011;6285;48.804;9.220;2023-03-14T09:10:44;1.10;;;0.40;;
12441;SDS011;6285;48.804;9.220;2023-03-14T09:13:11;1.95;;;0.40;;
12441;SDS011;6285;48.804;9.220;2023-03-14T09:15:38;0.60;;;0.30;;
12441;SDS011;6285;48.804;9.220;2023-03-14T09:18:07;1.00;;;0.55;;
12441;SDS011;6285;48.804;9.220;2023-03-14T09:20:35;0.80;;;0.30;;
12441;SDS011;6285;48.804;9.220;2023-03-14T09:23:02;1.05;;;0.43;;
12441;SDS011;6285;48.804;9.220;2023-03-14T09:25:29;1.35;;;0.50;;
12441;SDS011;6285;48.804;9.220;2023-03-14T09:27:56;3.97;;;0.70;;
12441;SDS011;6285;48.804;9.220;2023-03-14T09:30:23;2.33;;;0.60;;
12441;SDS011;6285;48.804;9.220;2023-03-14T09:32:50;1.25;;;0.50;;
12441;SDS011;6285;48.804;9.220;2023-03-14T09:35:17;1.48;;;0.35;;
12441;SDS011;6285;48.804;9.220;2023-03-14T09:37:46;0.68;;;0.30;;
12441;SDS011;6285;48.804;9.220;2023-03-14T09:40:14;0.80;;;0.50;;
12441;SDS011;6285;48.804;9.220;2023-03-14T09:42:43;1.10;;;0.45;;
12441;SDS011;6285;48.804;9.220;2023-03-14T09:45:11;2.88;;;0.57;;
12441;SDS011;6285;48.804;9.220;2023-03-14T09:47:39;0.60;;;0.40;;
12441;SDS011;6285;48.804;9.220;2023-03-14T09:50:09;1.80;;;0.57;;
12441;SDS011;6285;48.804;9.220;2023-03-14T09:52:39;1.80;;;0.38;;
12441;SDS011;6285;48.804;9.220;2023-03-14T09:55:11;0.68;;;0.40;;
12441;SDS011;6285;48.804;9.220;2023-03-14T09:57:39;2.65;;;0.50;;
12441;SDS011;6285;48.804;9.220;2023-03-14T10:00:11;1.77;;;0.60;;
12441;SDS011;6285;48.804;9.220;2023-03-14T10:02:40;0.77;;;0.57;;
12441;SDS011;6285;48.804;9.220;2023-03-14T10:05:14;1.05;;;0.30;;
12441;SDS011;6285;48.804;9.220;2023-03-14T10:07:42;1.88;;;0.30;;
12441;SDS011;6285;48.804;9.220;2023-03-14T10:10:11;2.97;;;0.40;;
12441;SDS011;6285;48.804;9.220;2023-03-14T10:12:40;1.77;;;0.52;;
12441;SDS011;6285;48.804;9.220;2023-03-14T10:15:08;0.57;;;0.40;;
12441;SDS011;6285;48.804;9.220;2023-03-14T10:17:39;0.73;;;0.35;;
12441;SDS011;6285;48.804;9.220;2023-03-14T10:20:15;1.20;;;0.40;;
12441;SDS011;6285;48.804;9.220;2023-03-14T10:22:52;0.73;;;0.30;;
12441;SDS011;6285;48.804;9.220;2023-03-14T10:25:25;0.93;;;0.30;;
12441;SDS011;6285;48.804;9.220;2023-03-14T10:27:52;1.25;;;0.30;;
12441;SDS011;6285;48.804;9.220;2023-03-14T10:32:55;3.20;;;0.40;;
12441;SDS011;6285;48.804;9.220;2023-03-14T10:35:22;0.90;;;0.57;;
12441;SDS011;6285;48.804;9.220;2023-03-14T10:37:50;0.50;;;0.40;;
12441;SDS011;6285;48.804;9.220;2023-03-14T10:40:19;0.70;;;0.50;;
12441;SDS011;6285;48.804;9.220;2023-03-14T10:42:49;0.40;;;0.30;;
12441;SDS011;6285;48.804;9.220;2023-03-14T10:45:27;0.80;;;0.45;;
12441;SDS011;6285;48.804;9.220;2023-03-14T10:47:57;0.45;;;0.32;;
12441;SDS011;6285;48.804;9.220;2023-03-14T10:50:25;1.30;;;0.40;;
12441;SDS011;6285;48.804;9.220;2023-03-14T10:52:53;0.40;;;0.32;;
12441;SDS011;6285;48.804;9.220;2023-03-14T10:55:21;0.80;;;0.30;;
12441;SDS011;6285;48.804;9.220;2023-03-14T10:57:49;1.02;;;0.40;;
12441;SDS011;6285;48.804;9.220;2023-03-14T11:00:17;1.35;;;0.50;;
12441;SDS011;6285;48.804;9.220;2023-03-14T11:02:57;1.85;;;0.60;;
12441;SDS011;6285;48.804;9.220;2023-03-14T11:05:28;0.75;;;0.40;;
12441;SDS011;6285;48.804;9.220;2023-03-14T11:07:59;4.00;;;0.47;;
12441;SDS011;6285;48.804;9.220;2023-03-14T11:10:30;1.27;;;0.30;;
12441;SDS011;6285;48.804;9.220;2023-03-14T11:13:03;0.60;;;0.30;;
12441;SDS011;6285;48.804;9.220;2023-03-14T11:15:36;0.50;;;0.30;;
12441;SDS011;6285;48.804;9.220;2023-03-14T11:20:51;0.82;;;0.40;;
12441;SDS011;6285;48.804;9.220;2023-03-14T11:23:20;1.17;;;0.47;;
12441;SDS011;6285;48.804;9.220;2023-03-14T11:25:49;3.08;;;0.68;;
12441;SDS011;6285;48.804;9.220;2023-03-14T11:28:22;2.17;;;0.68;;
12441;SDS011;6285;48.804;9.220;2023-03-14T11:30:50;2.05;;;0.60;;
12441;SDS011;6285;48.804;9.220;2023-03-14T11:33:20;1.30;;;0.40;;
12441;SDS011;6285;48.804;9.220;2023-03-14T11:35:49;0.40;;;0.40;;
12441;SDS011;6285;48.804;9.220;2023-03-14T11:38:27;1.13;;;0.40;;
12441;SDS011;6285;48.804;9.220;2023-03-14T11:40:55;0.65;;;0.40;;
12441;SDS011;6285;48.804;9.220;2023-03-14T11:43:26;0.60;;;0.40;;
12441;SDS011;6285;48.804;9.220;2023-03-14T11:45:56;0.82;;;0.50;;
12441;SDS011;6285;48.804;9.220;2023-03-14T11:48:28;0.77;;;0.40;;
12441;SDS011;6285;48.804;9.220;2023-03-14T11:50:57;2.63;;;0.35;;
12441;SDS011;6285;48.804;9.220;2023-03-14T11:53:28;0.85;;;0.40;;
12441;SDS011;6285;48.804;9.220;2023-03-14T11:56:06;0.85;;;0.30;;
12441;SDS011;6285;48.804;9.220;2023-03-14T11:58:39;0.30;;;0.30;;
12441;SDS011;6285;48.804;9.220;2023-03-14T12:01:11;1.05;;;0.40;;
12441;SDS011;6285;48.804;9.220;2023-03-14T12:03:42;1.15;;;0.40;;
12441;SDS011;6285;48.804;9.220;2023-03-14T12:06:13;1.60;;;0.50;;
12441;SDS011;6285;48.804;9.220;2023-03-14T12:08:46;1.58;;;0.63;;
12441;SDS011;6285;48.804;9.220;2023-03-14T12:11:27;2.58;;;0.50;;
12441;SDS011;6285;48.804;9.220;2023-03-14T12:13:56;0.40;;;0.30;;
12441;SDS011;6285;48.804;9.220;2023-03-14T12:16:30;1.27;;;0.80;;
12441;SDS011;6285;48.804;9.220;2023-03-14T12:19:08;0.70;;;0.40;;
12441;SDS011;6285;48.804;9.220;2023-03-14T12:21:44;0.68;;;0.40;;
12441;SDS011;6285;48.804;9.220;2023-03-14T12:24:17;1.85;;;0.30;;
12441;SDS011;6285;48.804;9.220;2023-03-14T12:26:49;1.45;;;0.30;;
12441;SDS011;6285;48.804;9.220;2023-03-14T12:29:20;0.30;;;0.20;;
12441;SDS011;6285;48.804;9.220;2023-03-14T12:31:47;0.60;;;0.45;;
12441;SDS011;6285;48.804;9.220;2023-03-14T12:34:28;0.63;;;0.50;;
12441;SDS011;6285;48.804;9.220;2023-03-14T12:37:00;0.40;;;0.32;;
12441;SDS011;6285;48.804;9.220;2023-03-14T12:39:35;0.85;;;0.50;;
12441;SDS011;6285;48.804;9.220;2023-03-14T12:42:05;0.60;;;0.43;;
12441;SDS011;6285;48.804;9.220;2023-03-14T12:44:39;0.47;;;0.40;;
12441;SDS011;6285;48.804;9.220;2023-03-14T12:49:52;0.88;;;0.68;;
12441;SDS011;6285;48.804;9.220;2023-03-14T12:52:22;0.90;;;0.70;;
12441;SDS011;6285;48.804;9.220;2023-03-14T12:54:57;0.95;;;0.55;;
12441;SDS011;6285;48.804;9.220;2023-03-14T12:57:27;2.08;;;1.13;;
12441;SDS011;6285;48.804;9.220;2023-03-14T12:59:56;1.08;;;0.60;;
12441;SDS011;6285;48.804;9.220;2023-03-14T13:02:25;1.70;;;0.60;;
12441;SDS011;6285;48.804;9.220;2023-03-14T13:04:53;1.05;;;0.50;;
12441;SDS011;6285;48.804;9.220;2023-03-14T13:07:38;1.00;;;0.52;;
12441;SDS011;6285;48.804;9.220;2023-03-14T13:10:26;1.15;;;0.50;;
12441;SDS011;6285;48.804;9.220;2023-03-14T13:12:55;1.20;;;0.60;;
12441;SDS011;6285;48.804;9.220;2023-03-14T13:15:24;0.93;;;0.60;;
12441;SDS011;6285;48.804;9.220;2023-03-14T13:17:54;1.13;;;0.50;;
12441;SDS011;6285;48.804;9.220;2023-03-14T13:20:28;3.13;;;0.60;;
12441;SDS011;6285;48.804;9.220;2023-03-14T13:22:56;3.00;;;0.60;;
12441;SDS011;6285;48.804;9.220;2023-03-14T13:25:23;2.55;;;0.60;;
12441;SDS011;6285;48.804;9.220;2023-03-14T13:27:53;1.85;;;0.68;;
12441;SDS011;6285;48.804;9.220;2023-03-14T13:30:21;1.15;;;0.55;;
12441;SDS011;6285;48.804;9.220;2023-03-14T13:32:49;2.00;;;0.63;;
12441;SDS011;6285;48.804;9.220;2023-03-14T13:35:18;0.70;;;0.45;;
12441;SDS011;6285;48.804;9.220;2023-03-14T13:37:46;1.98;;;0.65;;
12441;SDS011;6285;48.804;9.220;2023-03-14T13:40:20;2.22;;;0.80;;
12441;SDS011;6285;48.804;9.220;2023-03-14T13:43:00;3.25;;;0.60;;
12441;SDS011;6285;48.804;9.220;2023-03-14T13:45:28;0.73;;;0.40;;
12441;SDS011;6285;48.804;9.220;2023-03-14T13:47:54;0.77;;;0.50;;
12441;SDS011;6285;48.804;9.220;2023-03-14T13:50:21;3.03;;;0.80;;
12441;SDS011;6285;48.804;9.220;2023-03-14T13:52:54;1.13;;;0.60;;
12441;SDS011;6285;48.804;9.220;2023-03-14T13:55:21;2.45;;;0.50;;
12441;SDS011;6285;48.804;9.220;2023-03-14T13:57:49;2.90;;;0.80;;
12441;SDS011;6285;48.804;9.220;2023-03-14T14:00:22;1.55;;;0.60;;
12441;SDS011;6285;48.804;9.220;2023-03-14T14:02:51;3.67;;;0.70;;
12441;SDS011;6285;48.804;9.220;2023-03-14T14:05:19;2.15;;;0.60;;
12441;SDS011;6285;48.804;9.220;2023-03-14T14:07:46;1.67;;;0.70;;
12441;SDS011;6285;48.804;9.220;2023-03-14T14:10:13;1.35;;;0.50;;
12441;SDS011;6285;48.804;9.220;2023-03-14T14:12:41;2.13;;;0.50;;
12441;SDS011;6285;48.804;9.220;2023-03-14T14:15:15;2.03;;;0.70;;
12441;SDS011;6285;48.804;9.220;2023-03-14T14:17:46;1.73;;;0.45;;
12441;SDS011;6285;48.804;9.220;2023-03-14T14:20:18;4.15;;;1.20;;
12441;SDS011;6285;48.804;9.220;2023-03-14T14:22:47;2.13;;;0.60;;
12441;SDS011;6285;48.804;9.220;2023-03-14T14:25:14;2.08;;;0.60;;
12441;SDS011;6285;48.804;9.220;2023-03-14T14:27:42;1.52;;;0.50;;
12441;SDS011;6285;48.804;9.220;2023-03-14T14:30:25;1.67;;;0.60;;
12441;SDS011;6285;48.804;9.220;2023-03-14T14:35:55;2.33;;;0.73;;
12441;SDS011;6285;48.804;9.220;2023-03-14T14:38:24;4.00;;;0.70;;
12441;SDS011;6285;48.804;9.220;2023-03-14T14:40:52;1.27;;;0.70;;
12441;SDS011;6285;48.804;9.220;2023-03-14T14:43:21;2.90;;;0.80;;
12441;SDS011;6285;48.804;9.220;2023-03-14T14:45:49;2.97;;;0.70;;
12441;SDS011;6285;48.804;9.220;2023-03-14T14:48:18;2.35;;;0.70;;
12441;SDS011;6285;48.804;9.220;2023-03-14T14:50:50;3.45;;;0.80;;
12441;SDS011;6285;48.804;9.220;2023-03-14T14:53:23;3.33;;;0.90;;
12441;SDS011;6285;48.804;9.220;2023-03-14T14:55:51;4.05;;;0.70;;
12441;SDS011;6285;48.804;9.220;2023-03-14T14:58:20;2.00;;;0.60;;
12441;SDS011;6285;48.804;9.220;2023-03-14T15:00:50;2.47;;;1.50;;
12441;SDS011;6285;48.804;9.220;2023-03-14T15:03:18;6.38;;;1.20;;
12441;SDS011;6285;48.804;9.220;2023-03-14T15:05:45;3.20;;;0.90;;
12441;SDS011;6285;48.804;9.220;2023-03-14T15:08:12;2.58;;;0.95;;
12441;SDS011;6285;48.804;9.220;2023-03-14T15:10:41;2.15;;;0.80;;
12441;SDS011;6285;48.804;9.220;2023-03-14T15:13:08;1.70;;;0.75;;
12441;SDS011;6285;48.804;9.220;2023-03-14T15:15:35;2.33;;;1.02;;
12441;SDS011;6285;48.804;9.220;2023-03-14T15:18:02;2.33;;;0.80;;
12441;SDS011;6285;48.804;9.220;2023-03-14T15:20:29;1.98;;;0.68;;